createdAt,value
2023-02-02T00:01:25.470Z,4.05
2023-02-02T00:03:53.955Z,4.02
2023-02-02T00:06:25.277Z,4.02
2023-02-02T00:08:53.888Z,3.93
2023-02-02T00:11:21.829Z,3.98
2023-02-02T00:13:49.953Z,3.95
2023-02-02T00:16:42.781Z,3.93
2023-02-02T00:19:13.386Z,3.91
2023-02-02T00:21:43.373Z,3.95
2023-02-02T00:24:13.359Z,3.99
2023-02-02T00:26:42.978Z,3.91
2023-02-02T00:29:16.426Z,3.96
2023-02-02T00:31:44.372Z,3.88
2023-02-02T00:34:13.409Z,3.94
2023-02-02T00:36:43.125Z,3.99
2023-02-02T00:39:12.438Z,3.96
2023-02-02T00:41:40.336Z,3.98
2023-02-02T00:44:25.477Z,4.01
2023-02-02T00:46:53.558Z,4.01
2023-02-02T00:49:21.783Z,3.99
2023-02-02T00:51:50.999Z,3.96
2023-02-02T00:54:18.918Z,3.94
2023-02-02T00:56:46.866Z,3.94
2023-02-02T00:59:14.863Z,3.88
2023-02-02T01:01:42.810Z,3.92
2023-02-02T01:04:10.753Z,3.92
2023-02-02T01:06:38.643Z,3.89
2023-02-02T01:09:07.971Z,3.93
2023-02-02T01:11:35.932Z,3.93
2023-02-02T01:14:04.104Z,3.95
2023-02-02T01:16:32.202Z,3.88
2023-02-02T01:19:00.146Z,3.75
2023-02-02T01:21:28.098Z,3.86
2023-02-02T01:23:56.031Z,3.85
2023-02-02T01:26:25.342Z,3.90
2023-02-02T01:28:53.324Z,3.88
2023-02-02T01:31:22.145Z,3.91
2023-02-02T01:33:51.383Z,3.86
2023-02-02T01:36:21.963Z,3.92
2023-02-02T01:38:50.881Z,3.79
2023-02-02T01:41:20.985Z,3.88
2023-02-02T01:43:56.808Z,3.88
2023-02-02T01:46:26.837Z,3.79
2023-02-02T01:49:01.302Z,3.87
2023-02-02T01:51:36.980Z,3.86
2023-02-02T01:54:09.634Z,3.78
2023-02-02T01:56:42.778Z,3.74
2023-02-02T01:59:14.424Z,3.87
2023-02-02T02:01:42.868Z,3.80
2023-02-02T02:04:11.857Z,3.81
2023-02-02T02:06:40.050Z,3.77
2023-02-02T02:09:08.874Z,3.80
2023-02-02T02:11:37.453Z,3.69
2023-02-02T02:14:26.731Z,3.82
2023-02-02T02:17:08.814Z,3.76
2023-02-02T02:20:32.129Z,3.78
2023-02-02T02:23:42.949Z,3.72
2023-02-02T02:26:35.118Z,3.78
2023-02-02T02:29:30.270Z,3.73
2023-02-02T02:32:08.878Z,3.73
2023-02-02T02:34:50.193Z,3.78
2023-02-02T02:37:23.127Z,3.77
2023-02-02T02:39:56.516Z,3.74
2023-02-02T02:42:29.928Z,3.66
2023-02-02T02:45:02.711Z,3.83
2023-02-02T02:47:32.813Z,3.79
2023-02-02T02:50:00.736Z,3.71
2023-02-02T02:52:28.729Z,3.76
2023-02-02T02:54:59.642Z,3.65
2023-02-02T02:57:57.724Z,3.77
2023-02-02T03:00:44.198Z,3.68
2023-02-02T03:03:22.163Z,3.65
2023-02-02T03:05:55.255Z,3.73
2023-02-02T03:08:29.202Z,3.76
2023-02-02T03:10:57.673Z,3.74
2023-02-02T03:13:27.123Z,3.78
2023-02-02T03:15:55.441Z,3.74
2023-02-02T03:18:28.451Z,3.70
2023-02-02T03:20:56.968Z,3.68
2023-02-02T03:23:24.935Z,3.74
2023-02-02T03:25:53.170Z,3.71
2023-02-02T03:28:22.901Z,3.72
2023-02-02T03:30:51.973Z,3.72
2023-02-02T03:33:20.701Z,3.70
2023-02-02T03:35:50.064Z,3.73
2023-02-02T03:38:18.024Z,3.73
2023-02-02T03:40:46.031Z,3.77
2023-02-02T03:43:13.997Z,3.77
2023-02-02T03:45:41.942Z,3.74
2023-02-02T03:48:10.996Z,3.75
2023-02-02T03:50:39.224Z,3.77
2023-02-02T03:53:08.487Z,3.85
2023-02-02T03:55:36.405Z,3.77
2023-02-02T03:58:04.301Z,3.76
2023-02-02T04:00:32.364Z,3.78
2023-02-02T04:03:00.550Z,3.81
2023-02-02T04:05:28.557Z,3.81
2023-02-02T04:07:56.507Z,3.85
2023-02-02T04:10:25.819Z,3.87
2023-02-02T04:12:53.733Z,3.84
2023-02-02T04:15:21.701Z,3.82
2023-02-02T04:17:49.749Z,3.82
2023-02-02T04:20:18.412Z,3.72
2023-02-02T04:22:46.290Z,3.85
2023-02-02T04:25:14.261Z,3.83
2023-02-02T04:27:43.626Z,3.84
2023-02-02T04:30:12.936Z,3.87
2023-02-02T04:32:40.888Z,3.86
2023-02-02T04:35:09.843Z,3.87
2023-02-02T04:37:37.767Z,3.89
2023-02-02T04:40:06.445Z,3.91
2023-02-02T04:42:35.117Z,3.88
2023-02-02T04:45:04.933Z,3.93
2023-02-02T04:47:32.761Z,3.88
2023-02-02T04:50:00.731Z,3.88
2023-02-02T04:52:30.285Z,3.86
2023-02-02T04:54:58.213Z,3.88
2023-02-02T04:57:26.122Z,3.91
2023-02-02T04:59:54.181Z,3.90
2023-02-02T05:02:23.449Z,3.97
2023-02-02T05:04:51.407Z,3.90
2023-02-02T05:07:19.352Z,3.83
2023-02-02T05:09:47.297Z,3.93
2023-02-02T05:12:15.230Z,3.83
2023-02-02T05:14:43.175Z,3.90
2023-02-02T05:17:11.211Z,3.91
2023-02-02T05:19:40.560Z,3.97
2023-02-02T05:22:08.493Z,3.99
2023-02-02T05:24:36.496Z,3.94
2023-02-02T05:27:04.535Z,3.87
2023-02-02T05:29:32.789Z,3.93
2023-02-02T05:32:00.799Z,3.99
2023-02-02T05:34:28.754Z,3.97
2023-02-02T05:36:58.057Z,3.96
2023-02-02T05:39:26.003Z,4.02
2023-02-02T05:41:53.953Z,3.95
2023-02-02T05:44:22.062Z,3.91
2023-02-02T05:46:49.957Z,3.97
2023-02-02T05:49:17.910Z,3.96
2023-02-02T05:51:48.909Z,4.02
2023-02-02T05:54:20.612Z,3.97
2023-02-02T05:56:50.058Z,3.96
2023-02-02T05:59:18.535Z,3.99
2023-02-02T06:01:46.838Z,3.95
2023-02-02T06:04:15.134Z,4.00
2023-02-02T06:06:44.006Z,3.96
2023-02-02T06:09:11.933Z,4.02
2023-02-02T06:11:41.328Z,3.98
2023-02-02T06:14:09.358Z,4.03
2023-02-02T06:16:37.331Z,4.03
2023-02-02T06:19:05.745Z,4.03
2023-02-02T06:21:33.770Z,4.03
2023-02-02T06:24:02.263Z,4.08
2023-02-02T06:26:30.433Z,3.98
2023-02-02T06:28:59.815Z,4.00
2023-02-02T06:31:27.885Z,4.07
2023-02-02T06:33:57.261Z,3.95
2023-02-02T06:36:26.676Z,4.07
2023-02-02T06:38:56.392Z,4.03
2023-02-02T06:41:24.934Z,4.01
2023-02-02T06:43:53.220Z,4.06
2023-02-02T06:46:22.579Z,4.08
2023-02-02T06:48:50.487Z,4.07
2023-02-02T06:51:18.432Z,4.02
2023-02-02T06:53:48.929Z,4.06
2023-02-02T06:56:17.338Z,3.98
2023-02-02T06:58:45.297Z,4.01
2023-02-02T07:01:14.871Z,4.00
2023-02-02T07:03:44.294Z,3.96
2023-02-02T07:06:13.893Z,4.03
2023-02-02T07:08:41.811Z,4.00
2023-02-02T07:11:13.548Z,4.07
2023-02-02T07:13:43.616Z,4.09
2023-02-02T07:16:12.967Z,4.07
2023-02-02T07:18:40.954Z,4.04
2023-02-02T07:21:10.966Z,4.06
2023-02-02T07:23:38.876Z,4.07
2023-02-02T07:26:08.850Z,4.08
2023-02-02T07:28:37.430Z,4.14
2023-02-02T07:31:15.295Z,4.15
2023-02-02T07:33:44.029Z,4.20
2023-02-02T07:36:16.260Z,4.12
2023-02-02T07:38:44.560Z,4.10
2023-02-02T07:41:12.671Z,4.22
2023-02-02T07:43:40.664Z,4.24
2023-02-02T07:46:12.893Z,4.28
2023-02-02T07:48:41.413Z,4.26
2023-02-02T07:51:12.866Z,4.28
2023-02-02T07:53:45.046Z,4.27
2023-02-02T07:56:14.736Z,4.28
2023-02-02T07:58:43.461Z,4.32
2023-02-02T08:01:13.813Z,4.33
2023-02-02T08:03:42.922Z,4.35
2023-02-02T08:06:13.998Z,4.36
2023-02-02T08:08:43.354Z,4.39
2023-02-02T08:11:12.581Z,4.44
2023-02-02T08:13:41.057Z,4.41
2023-02-02T08:16:09.606Z,4.43
2023-02-02T08:18:38.520Z,4.43
2023-02-02T08:21:09.612Z,4.44
2023-02-02T08:23:38.005Z,4.52
2023-02-02T08:26:12.712Z,4.53
2023-02-02T08:28:42.248Z,4.55
2023-02-02T08:31:12.850Z,4.54
2023-02-02T08:33:41.430Z,4.57
2023-02-02T08:36:13.711Z,4.59
2023-02-02T08:38:42.255Z,4.59
2023-02-02T08:41:14.170Z,4.48
2023-02-02T08:43:43.061Z,4.62
2023-02-02T08:46:14.125Z,4.63
2023-02-02T08:48:42.375Z,4.68
2023-02-02T08:51:13.039Z,4.62
2023-02-02T08:53:41.231Z,4.71
2023-02-02T08:56:13.834Z,4.74
2023-02-02T08:58:45.666Z,4.81
2023-02-02T09:01:16.141Z,4.80
2023-02-02T09:03:44.577Z,4.77
2023-02-02T09:06:14.936Z,4.84
2023-02-02T09:08:46.284Z,4.90
2023-02-02T09:11:19.835Z,4.83
2023-02-02T09:13:49.856Z,4.83
2023-02-02T09:16:19.620Z,4.82
2023-02-02T09:18:47.648Z,4.83
2023-02-02T09:21:17.911Z,4.85
2023-02-02T09:23:46.627Z,4.90
2023-02-02T09:26:18.219Z,4.93
2023-02-02T09:28:48.061Z,4.89
2023-02-02T09:31:17.077Z,4.99
2023-02-02T09:33:45.142Z,4.99
2023-02-02T09:36:14.866Z,4.99
2023-02-02T09:38:44.216Z,4.99
2023-02-02T09:41:31.801Z,4.98
2023-02-02T09:44:08.542Z,5.00
2023-02-02T09:46:49.208Z,4.98
2023-02-02T09:49:23.314Z,5.04
2023-02-02T09:51:58.626Z,5.10
2023-02-02T09:54:34.340Z,5.08
2023-02-02T09:57:10.264Z,4.95
2023-02-02T09:59:42.972Z,5.07
2023-02-02T10:02:18.743Z,5.10
2023-02-02T10:04:51.050Z,5.11
2023-02-02T10:07:25.101Z,5.13
2023-02-02T10:10:01.037Z,5.14
2023-02-02T10:12:37.200Z,5.13
2023-02-02T10:15:14.469Z,5.13
2023-02-02T10:17:46.448Z,5.20
2023-02-02T10:20:27.240Z,5.20
2023-02-02T10:22:59.163Z,5.28
2023-02-02T10:25:29.094Z,5.31
2023-02-02T10:28:06.490Z,5.38
2023-02-02T10:30:44.288Z,5.41
2023-02-02T10:33:19.634Z,5.41
2023-02-02T10:35:54.953Z,5.39
2023-02-02T10:38:30.790Z,5.34
2023-02-02T10:41:08.035Z,5.35
2023-02-02T10:43:59.846Z,5.41
2023-02-02T10:46:33.128Z,5.32
2023-02-02T10:49:16.582Z,5.39
2023-02-02T10:51:50.320Z,5.49
2023-02-02T10:54:57.142Z,5.47
2023-02-02T10:57:47.983Z,5.56
2023-02-02T11:00:23.370Z,5.56
2023-02-02T11:02:53.029Z,5.49
2023-02-02T11:05:41.333Z,5.42
2023-02-02T11:08:17.214Z,5.54
2023-02-02T11:10:46.741Z,5.58
2023-02-02T11:13:23.639Z,5.53
2023-02-02T11:15:52.993Z,5.50
2023-02-02T11:18:31.165Z,5.54
2023-02-02T11:20:59.235Z,5.50
2023-02-02T11:23:29.333Z,5.56
2023-02-02T11:26:05.402Z,5.50
2023-02-02T11:28:36.750Z,5.53
2023-02-02T11:31:06.365Z,5.56
2023-02-02T11:33:36.013Z,5.62
2023-02-02T11:36:06.375Z,5.63
2023-02-02T11:38:34.553Z,5.64
2023-02-02T11:41:05.184Z,5.70
2023-02-02T11:43:41.005Z,5.78
2023-02-02T11:46:20.681Z,5.81
2023-02-02T11:49:01.901Z,6.00
2023-02-02T11:51:31.981Z,5.92
2023-02-02T11:54:07.031Z,6.02
2023-02-02T11:56:36.666Z,6.00
2023-02-02T11:59:06.269Z,5.98
2023-02-02T12:01:39.776Z,6.04
2023-02-02T12:04:26.823Z,5.91
2023-02-02T12:06:54.870Z,5.94
2023-02-02T12:09:24.971Z,5.94
2023-02-02T12:12:02.378Z,5.97
2023-02-02T12:14:43.282Z,6.06
2023-02-02T12:17:23.114Z,5.96
2023-02-02T12:20:05.254Z,6.00
2023-02-02T12:22:52.432Z,5.91
2023-02-02T12:25:39.247Z,5.87
2023-02-02T12:28:18.583Z,5.83
2023-02-02T12:30:57.356Z,5.83
2023-02-02T12:33:36.167Z,5.88
2023-02-02T12:36:29.914Z,5.83
2023-02-02T12:39:19.423Z,5.88
2023-02-02T12:42:18.776Z,5.82
2023-02-02T12:45:01.999Z,5.77
2023-02-02T12:47:36.995Z,5.84
2023-02-02T12:50:18.663Z,5.76
2023-02-02T12:53:00.081Z,5.80
2023-02-02T12:55:43.925Z,5.84
2023-02-02T12:58:23.280Z,5.91
2023-02-02T13:01:01.675Z,5.81
2023-02-02T13:03:37.268Z,5.83
2023-02-02T13:06:19.922Z,5.79
2023-02-02T13:08:53.076Z,5.80
2023-02-02T13:11:31.396Z,5.74
2023-02-02T13:14:06.297Z,5.77
2023-02-02T13:16:41.141Z,5.76
2023-02-02T13:19:14.665Z,5.77
2023-02-02T13:21:45.437Z,5.79
2023-02-02T13:24:17.009Z,5.77
2023-02-02T13:26:47.027Z,5.81
2023-02-02T13:29:34.713Z,5.80
2023-02-02T13:32:22.493Z,5.85
2023-02-02T13:34:54.663Z,5.89
2023-02-02T13:37:29.568Z,5.86
2023-02-02T13:40:00.563Z,5.87
2023-02-02T13:42:38.242Z,5.88
2023-02-02T13:45:24.764Z,5.88
2023-02-02T13:47:58.426Z,5.87
2023-02-02T13:50:30.534Z,5.87
2023-02-02T13:53:21.887Z,5.93
2023-02-02T13:56:10.710Z,5.94
2023-02-02T13:58:58.396Z,5.98
2023-02-02T14:01:27.635Z,5.95
2023-02-02T14:03:57.965Z,5.96
2023-02-02T14:06:27.751Z,5.94
2023-02-02T14:09:00.009Z,5.89
2023-02-02T14:11:32.104Z,5.97
2023-02-02T14:14:25.654Z,5.95
2023-02-02T14:16:56.242Z,6.01
2023-02-02T14:19:50.640Z,5.94
2023-02-02T14:22:21.472Z,5.95
2023-02-02T14:24:53.719Z,5.95
2023-02-02T14:27:58.460Z,5.99
2023-02-02T14:30:29.110Z,5.95
2023-02-02T14:33:26.921Z,5.99
2023-02-02T14:36:03.072Z,5.95
2023-02-02T14:39:11.877Z,5.94
2023-02-02T14:42:34.066Z,5.94
2023-02-02T14:45:32.704Z,5.98
2023-02-02T14:48:03.084Z,5.92
2023-02-02T14:50:43.822Z,5.97
2023-02-02T14:53:22.323Z,5.98
2023-02-02T14:56:01.727Z,5.99
2023-02-02T14:58:36.543Z,5.81
2023-02-02T15:01:11.810Z,6.06
2023-02-02T15:03:53.117Z,5.97
2023-02-02T15:06:34.003Z,6.00
2023-02-02T15:09:39.774Z,6.07
2023-02-02T15:12:30.769Z,6.07
2023-02-02T15:15:11.807Z,6.04
2023-02-02T15:17:49.854Z,6.03
2023-02-02T15:20:25.489Z,6.00
2023-02-02T15:23:00.898Z,5.89
2023-02-02T15:25:34.176Z,6.04
2023-02-02T15:28:08.887Z,6.02
2023-02-02T15:30:42.523Z,5.99
2023-02-02T15:33:22.572Z,6.05
2023-02-02T15:35:51.016Z,6.05
2023-02-02T15:38:21.535Z,5.98
2023-02-02T15:40:51.080Z,5.97
2023-02-02T15:43:19.596Z,6.00
2023-02-02T15:45:53.299Z,5.94
2023-02-02T15:48:25.186Z,6.04
2023-02-02T15:50:55.963Z,6.03
2023-02-02T15:53:27.419Z,6.04
2023-02-02T15:55:57.419Z,6.06
2023-02-02T15:58:32.145Z,5.98
2023-02-02T16:01:05.100Z,6.02
2023-02-02T16:03:43.641Z,5.97
2023-02-02T16:06:11.798Z,6.02
2023-02-02T16:08:41.174Z,6.02
2023-02-02T16:11:12.582Z,5.98
2023-02-02T16:13:42.055Z,5.98
2023-02-02T16:16:25.660Z,5.97
2023-02-02T16:19:07.217Z,5.98
2023-02-02T16:21:36.685Z,5.97
2023-02-02T16:24:08.280Z,5.92
2023-02-02T16:26:37.255Z,5.99
2023-02-02T16:29:06.524Z,5.95
2023-02-02T16:31:36.612Z,5.99
2023-02-02T16:34:04.994Z,5.98
2023-02-02T16:36:32.954Z,5.96
2023-02-02T16:39:01.424Z,6.00
2023-02-02T16:41:33.831Z,5.99
2023-02-02T16:44:30.237Z,5.99
2023-02-02T16:47:01.567Z,6.00
2023-02-02T16:49:31.244Z,5.98
2023-02-02T16:52:12.698Z,6.00
2023-02-02T16:54:43.858Z,6.00
2023-02-02T16:57:19.254Z,5.98
2023-02-02T16:59:51.857Z,5.96
2023-02-02T17:02:30.636Z,6.03
2023-02-02T17:05:03.293Z,5.93
2023-02-02T17:07:33.508Z,6.00
2023-02-02T17:10:15.381Z,6.01
2023-02-02T17:12:43.632Z,6.02
2023-02-02T17:15:35.051Z,5.97
2023-02-02T17:18:05.860Z,6.00
2023-02-02T17:20:34.832Z,5.90
2023-02-02T17:23:06.968Z,6.04
2023-02-02T17:25:38.350Z,5.97
2023-02-02T17:28:11.122Z,6.03
2023-02-02T17:30:41.056Z,6.02
2023-02-02T17:33:14.894Z,5.93
2023-02-02T17:35:53.539Z,6.04
2023-02-02T17:38:22.522Z,5.97
2023-02-02T17:40:51.580Z,5.97
2023-02-02T17:43:19.539Z,5.86
2023-02-02T17:45:47.713Z,5.91
2023-02-02T17:48:17.533Z,5.91
2023-02-02T17:50:46.121Z,5.87
2023-02-02T17:53:16.128Z,5.83
2023-02-02T17:55:45.637Z,5.89
2023-02-02T17:58:17.169Z,5.83
2023-02-02T18:00:47.747Z,5.92
2023-02-02T18:03:20.954Z,5.91
2023-02-02T18:05:49.252Z,5.87
2023-02-02T18:08:17.534Z,5.90
2023-02-02T18:10:45.783Z,5.88
2023-02-02T18:13:16.695Z,5.85
2023-02-02T18:15:45.285Z,5.85
2023-02-02T18:18:13.441Z,5.84
2023-02-02T18:20:43.944Z,5.87
2023-02-02T18:23:12.409Z,5.92
2023-02-02T18:25:40.478Z,5.97
2023-02-02T18:28:09.282Z,5.96
2023-02-02T18:30:39.188Z,5.93
2023-02-02T18:33:08.845Z,5.96
2023-02-02T18:35:36.923Z,5.91
2023-02-02T18:38:06.262Z,5.87
2023-02-02T18:40:34.271Z,5.90
2023-02-02T18:43:02.191Z,5.97
2023-02-02T18:45:32.949Z,5.84
2023-02-02T18:48:00.818Z,5.82
2023-02-02T18:50:28.871Z,5.79
2023-02-02T18:52:57.048Z,5.78
2023-02-02T18:55:26.725Z,5.73
2023-02-02T18:57:54.875Z,5.78
2023-02-02T19:00:23.286Z,5.67
2023-02-02T19:02:51.191Z,5.62
2023-02-02T19:05:36.889Z,5.61
2023-02-02T19:08:05.939Z,5.68
2023-02-02T19:10:35.292Z,5.66
2023-02-02T19:13:15.014Z,5.46
2023-02-02T19:15:43.263Z,5.64
2023-02-02T19:18:16.023Z,5.68
2023-02-02T19:20:44.962Z,5.71
2023-02-02T19:23:15.231Z,5.58
2023-02-02T19:25:47.097Z,5.58
2023-02-02T19:28:22.372Z,5.47
2023-02-02T19:30:50.952Z,5.47
2023-02-02T19:33:19.390Z,5.48
2023-02-02T19:35:51.725Z,5.42
2023-02-02T19:38:20.711Z,5.39
2023-02-02T19:40:50.141Z,5.40
2023-02-02T19:43:26.500Z,5.44
2023-02-02T19:45:54.788Z,5.37
2023-02-02T19:48:27.041Z,5.41
2023-02-02T19:50:55.879Z,5.38
2023-02-02T19:53:28.331Z,5.37
2023-02-02T19:55:57.828Z,5.34
2023-02-02T19:58:29.999Z,5.30
2023-02-02T20:00:59.351Z,5.29
2023-02-02T20:03:29.337Z,5.34
2023-02-02T20:06:00.711Z,5.27
2023-02-02T20:08:33.052Z,5.28
2023-02-02T20:11:17.950Z,5.25
2023-02-02T20:13:48.882Z,5.16
2023-02-02T20:16:19.254Z,5.23
2023-02-02T20:18:53.238Z,5.19
2023-02-02T20:21:27.060Z,5.18
2023-02-02T20:23:54.843Z,5.20
2023-02-02T20:26:27.149Z,5.13
2023-02-02T20:28:56.841Z,5.19
2023-02-02T20:31:29.984Z,5.11
2023-02-02T20:33:58.553Z,5.14
2023-02-02T20:36:38.300Z,5.12
2023-02-02T20:39:27.484Z,5.10
2023-02-02T20:41:58.771Z,5.04
2023-02-02T20:44:27.456Z,5.02
2023-02-02T20:46:56.380Z,5.10
2023-02-02T20:49:25.711Z,4.95
2023-02-02T20:51:54.421Z,5.00
2023-02-02T20:54:23.228Z,4.99
2023-02-02T20:56:51.528Z,4.98
2023-02-02T20:59:20.871Z,5.00
2023-02-02T21:01:49.945Z,4.94
2023-02-02T21:04:18.409Z,4.95
2023-02-02T21:06:48.287Z,4.98
2023-02-02T21:09:17.324Z,5.05
2023-02-02T21:11:45.294Z,5.04
2023-02-02T21:14:13.315Z,4.95
2023-02-02T21:16:42.766Z,4.97
2023-02-02T21:19:10.954Z,4.99
2023-02-02T21:21:39.007Z,5.08
2023-02-02T21:24:07.429Z,5.07
2023-02-02T21:26:35.423Z,5.02
2023-02-02T21:29:03.606Z,5.06
2023-02-02T21:31:35.277Z,4.98
2023-02-02T21:34:04.767Z,5.00
2023-02-02T21:36:37.683Z,5.00
2023-02-02T21:39:19.331Z,5.05
2023-02-02T21:41:47.308Z,5.04
2023-02-02T21:44:16.411Z,4.98
2023-02-02T21:46:44.823Z,4.99
2023-02-02T21:49:22.684Z,5.03
2023-02-02T21:51:51.401Z,4.99
2023-02-02T21:54:23.130Z,4.89
2023-02-02T21:56:52.121Z,4.95
2023-02-02T21:59:21.714Z,5.05
2023-02-02T22:01:51.327Z,4.96
2023-02-02T22:04:25.883Z,5.02
2023-02-02T22:06:54.771Z,4.99
2023-02-02T22:09:25.646Z,4.96
2023-02-02T22:11:58.452Z,4.91
2023-02-02T22:14:37.854Z,4.93
2023-02-02T22:17:21.837Z,4.92
2023-02-02T22:19:52.085Z,4.92
2023-02-02T22:22:23.072Z,4.91
2023-02-02T22:24:58.210Z,5.04
2023-02-02T22:27:28.459Z,4.99
2023-02-02T22:30:01.798Z,4.94
2023-02-02T22:32:29.703Z,4.97
2023-02-02T22:34:59.002Z,5.04
2023-02-02T22:37:26.914Z,5.08
2023-02-02T22:39:54.820Z,5.04
2023-02-02T22:42:22.749Z,5.07
2023-02-02T22:44:50.991Z,5.07
2023-02-02T22:47:18.894Z,5.05
2023-02-02T22:49:46.755Z,5.03
2023-02-02T22:52:16.075Z,5.04
2023-02-02T22:54:43.982Z,5.06
2023-02-02T22:57:11.908Z,5.04
2023-02-02T22:59:39.828Z,5.06
2023-02-02T23:02:07.793Z,5.02
2023-02-02T23:04:35.940Z,4.79
2023-02-02T23:07:04.180Z,4.93
2023-02-02T23:09:33.529Z,4.91
2023-02-02T23:12:01.552Z,4.91
2023-02-02T23:14:29.417Z,4.87
2023-02-02T23:16:57.328Z,4.84
2023-02-02T23:19:25.245Z,4.92
2023-02-02T23:21:53.169Z,4.88
2023-02-02T23:24:21.073Z,4.86
2023-02-02T23:26:50.683Z,4.96
2023-02-02T23:29:18.613Z,5.00
2023-02-02T23:31:46.640Z,4.94
2023-02-02T23:34:14.759Z,4.96
2023-02-02T23:36:42.693Z,4.84
2023-02-02T23:39:10.615Z,4.87
2023-02-02T23:41:39.535Z,4.87
2023-02-02T23:44:08.855Z,4.84
2023-02-02T23:46:37.913Z,4.80
2023-02-02T23:49:06.039Z,4.80
2023-02-02T23:51:34.230Z,4.76
2023-02-02T23:54:02.723Z,4.76
2023-02-02T23:56:30.843Z,4.73
2023-02-02T23:58:58.733Z,4.77
